createdAt,value
2019-01-06T00:02:10.837Z,11.23
2019-01-06T00:04:57.779Z,9.10
2019-01-06T00:07:44.682Z,8.40
2019-01-06T00:10:31.709Z,9.43
2019-01-06T00:13:07.348Z,7.63
2019-01-06T00:15:54.345Z,6.50
2019-01-06T00:18:33.243Z,7.70
2019-01-06T00:21:20.204Z,11.73
2019-01-06T00:24:07.161Z,11.80
2019-01-06T00:26:54.164Z,9.30
2019-01-06T00:29:41.084Z,9.60
2019-01-06T00:32:28.341Z,7.67
2019-01-06T00:35:15.336Z,11.10
2019-01-06T00:38:02.299Z,10.77
2019-01-06T00:40:49.332Z,10.80
2019-01-06T00:43:36.251Z,16.30
2019-01-06T00:46:17.547Z,12.50
2019-01-06T00:49:04.508Z,12.40
2019-01-06T00:51:51.468Z,9.63
2019-01-06T00:54:38.477Z,8.43
2019-01-06T00:57:25.376Z,8.53
2019-01-06T01:00:12.317Z,8.23
2019-01-06T01:02:59.204Z,8.10
2019-01-06T01:05:46.145Z,13.53
2019-01-06T01:08:33.120Z,11.53
2019-01-06T01:11:20.126Z,11.67
2019-01-06T01:14:07.041Z,8.80
2019-01-06T01:16:54.032Z,8.77
2019-01-06T01:19:34.296Z,9.13
2019-01-06T01:22:21.493Z,7.60
2019-01-06T01:25:08.431Z,9.03
2019-01-06T01:27:55.484Z,8.80
2019-01-06T01:30:42.518Z,12.73
2019-01-06T01:33:29.577Z,11.30
2019-01-06T01:36:16.453Z,10.57
2019-01-06T01:39:03.389Z,8.70
2019-01-06T01:41:50.539Z,8.70
2019-01-06T01:44:37.464Z,8.90
2019-01-06T01:47:24.514Z,8.60
2019-01-06T01:50:11.531Z,9.63
2019-01-06T01:52:55.429Z,10.10
2019-01-06T01:55:42.638Z,10.20
2019-01-06T01:58:29.649Z,8.30
2019-01-06T02:01:16.614Z,8.80
2019-01-06T02:04:03.592Z,8.37
2019-01-06T02:06:50.564Z,9.40
2019-01-06T02:09:37.566Z,8.93
2019-01-06T02:12:12.933Z,11.77
2019-01-06T02:14:59.865Z,12.10
2019-01-06T02:17:47.089Z,11.80
2019-01-06T02:20:34.007Z,10.10
2019-01-06T02:23:21.014Z,9.30
2019-01-06T02:26:08.026Z,9.67
2019-01-06T02:28:55.006Z,9.43
2019-01-06T02:31:41.983Z,10.63
2019-01-06T02:34:29.037Z,9.40
2019-01-06T02:37:15.980Z,12.93
2019-01-06T02:40:02.961Z,12.03
2019-01-06T02:42:49.916Z,10.47
2019-01-06T02:45:36.885Z,10.20
2019-01-06T02:48:23.862Z,9.93
2019-01-06T02:51:10.821Z,11.07
2019-01-06T02:53:57.817Z,10.00
2019-01-06T02:56:44.857Z,9.23
2019-01-06T02:59:31.750Z,12.23
2019-01-06T03:02:18.929Z,13.07
2019-01-06T03:05:05.888Z,10.50
2019-01-06T03:10:53.902Z,10.20
2019-01-06T03:13:40.922Z,11.50
2019-01-06T03:16:27.850Z,10.30
2019-01-06T03:19:15.255Z,10.73
2019-01-06T03:22:02.218Z,12.20
2019-01-06T03:24:49.097Z,12.80
2019-01-06T03:27:36.157Z,12.00
2019-01-06T03:30:23.642Z,10.47
2019-01-06T03:33:10.609Z,11.10
2019-01-06T03:35:57.584Z,10.73
2019-01-06T03:38:44.804Z,10.50
2019-01-06T03:41:31.801Z,10.60
2019-01-06T03:44:18.856Z,12.60
2019-01-06T03:47:05.776Z,12.27
2019-01-06T03:49:52.807Z,11.47
2019-01-06T03:52:39.812Z,10.27
2019-01-06T03:55:27.098Z,9.97
2019-01-06T03:58:11.750Z,11.87
2019-01-06T04:00:58.660Z,11.80
2019-01-06T04:03:45.605Z,10.90
2019-01-06T04:06:32.548Z,13.10
2019-01-06T04:09:19.508Z,13.20
2019-01-06T04:12:06.460Z,13.17
2019-01-06T04:14:53.446Z,11.53
2019-01-06T04:17:40.492Z,12.40
2019-01-06T04:20:27.466Z,12.30
2019-01-06T04:23:14.869Z,12.57
2019-01-06T04:26:01.784Z,12.20
2019-01-06T04:28:49.046Z,13.87
2019-01-06T04:31:35.991Z,15.97
2019-01-06T04:34:23.238Z,14.50
2019-01-06T04:37:10.106Z,13.20
2019-01-06T04:39:57.279Z,12.00
2019-01-06T04:45:51.931Z,12.17
2019-01-06T04:48:38.818Z,13.93
2019-01-06T04:51:26.039Z,13.33
2019-01-06T04:54:12.978Z,13.80
2019-01-06T04:57:00.052Z,14.57
2019-01-06T04:59:46.991Z,13.27
2019-01-06T05:02:34.004Z,12.43
2019-01-06T05:05:20.965Z,12.57
2019-01-06T05:08:08.009Z,11.43
2019-01-06T05:10:54.999Z,11.23
2019-01-06T05:13:41.959Z,13.50
2019-01-06T05:16:28.969Z,14.10
2019-01-06T05:19:15.944Z,12.50
2019-01-06T05:22:03.214Z,12.53
2019-01-06T05:24:50.288Z,11.80
2019-01-06T05:27:37.239Z,11.80
2019-01-06T05:30:24.279Z,11.30
2019-01-06T05:33:11.207Z,11.83
2019-01-06T05:35:58.317Z,13.87
2019-01-06T05:38:45.217Z,12.30
2019-01-06T05:41:32.261Z,12.40
2019-01-06T05:44:19.233Z,9.20
2019-01-06T05:47:11.578Z,11.27
2019-01-06T05:49:58.610Z,10.50
2019-01-06T05:55:24.253Z,11.20
2019-01-06T05:58:11.352Z,9.70
2019-01-06T06:00:58.333Z,12.00
2019-01-06T06:03:45.273Z,11.40
2019-01-06T06:06:32.216Z,10.60
2019-01-06T06:09:18.940Z,9.27
2019-01-06T06:12:05.896Z,10.43
2019-01-06T06:14:52.857Z,9.80
2019-01-06T06:17:39.841Z,10.60
2019-01-06T06:20:26.805Z,10.40
2019-01-06T06:23:13.753Z,16.97
2019-01-06T06:26:00.723Z,12.93
2019-01-06T06:28:36.690Z,10.80
2019-01-06T06:31:23.652Z,10.13
2019-01-06T06:34:10.651Z,10.77
2019-01-06T06:36:57.601Z,10.00
2019-01-06T06:39:44.466Z,9.97
2019-01-06T06:42:31.427Z,11.23
2019-01-06T06:45:18.482Z,12.67
2019-01-06T06:48:05.479Z,12.13
2019-01-06T06:50:52.468Z,10.80
2019-01-06T06:53:39.520Z,10.60
2019-01-06T06:56:26.523Z,9.40
2019-01-06T06:59:13.497Z,9.60
2019-01-06T07:02:19.432Z,9.80
2019-01-06T07:05:06.392Z,10.27
2019-01-06T07:07:53.325Z,10.83
2019-01-06T07:10:40.314Z,11.70
2019-01-06T07:13:27.359Z,12.20
2019-01-06T07:16:14.608Z,8.30
2019-01-06T07:19:01.625Z,9.47
2019-01-06T07:21:48.618Z,9.40
2019-01-06T07:24:35.581Z,9.80
2019-01-06T07:27:22.512Z,9.80
2019-01-06T07:30:09.543Z,11.97
2019-01-06T07:32:56.707Z,14.03
2019-01-06T07:35:43.710Z,11.70
2019-01-06T07:38:30.679Z,10.20
2019-01-06T07:41:18.330Z,9.67
2019-01-06T07:44:05.305Z,10.33
2019-01-06T07:46:52.317Z,10.23
2019-01-06T07:49:39.354Z,9.43
2019-01-06T07:52:26.444Z,11.50
2019-01-06T07:55:13.390Z,10.33
2019-01-06T07:58:00.388Z,10.73
2019-01-06T08:00:47.442Z,11.37
2019-01-06T08:03:34.482Z,10.00
2019-01-06T08:06:21.378Z,10.60
2019-01-06T08:09:08.637Z,10.37
2019-01-06T08:11:55.582Z,8.00
2019-01-06T08:14:42.607Z,12.17
2019-01-06T08:17:29.604Z,14.10
2019-01-06T08:20:16.687Z,10.03
2019-01-06T08:23:03.703Z,8.73
2019-01-06T08:25:50.653Z,7.37
2019-01-06T08:28:37.581Z,13.03
2019-01-06T08:34:25.623Z,10.67
2019-01-06T08:37:12.567Z,12.67
2019-01-06T08:39:59.528Z,17.20
2019-01-06T08:42:46.530Z,13.63
2019-01-06T08:45:34.371Z,11.97
2019-01-06T08:48:21.460Z,12.37
2019-01-06T08:51:08.448Z,12.60
2019-01-06T08:53:55.456Z,11.80
2019-01-06T08:56:42.542Z,10.93
2019-01-06T08:59:29.604Z,11.50
2019-01-06T09:02:16.874Z,13.67
2019-01-06T09:05:03.773Z,13.30
2019-01-06T09:07:50.875Z,12.27
2019-01-06T09:10:37.848Z,13.30
2019-01-06T09:13:24.883Z,13.30
2019-01-06T09:16:11.803Z,11.47
2019-01-06T09:18:58.817Z,13.13
2019-01-06T09:21:45.696Z,11.17
2019-01-06T09:24:32.612Z,13.50
2019-01-06T09:27:19.513Z,14.03
2019-01-06T09:30:06.456Z,12.40
2019-01-06T09:32:53.580Z,11.80
2019-01-06T09:35:40.593Z,13.27
2019-01-06T09:38:27.608Z,12.87
2019-01-06T09:41:14.782Z,13.60
2019-01-06T09:44:02.137Z,12.93
2019-01-06T09:46:49.125Z,14.57
2019-01-06T09:49:36.064Z,14.93
2019-01-06T09:52:23.000Z,38.93
2019-01-06T09:55:10.060Z,18.70
2019-01-06T09:57:57.025Z,14.50
2019-01-06T10:00:43.950Z,18.20
2019-01-06T10:03:31.034Z,16.30
2019-01-06T10:06:18.081Z,24.67
2019-01-06T10:09:05.095Z,23.63
2019-01-06T10:11:52.160Z,19.30
2019-01-06T10:14:39.250Z,15.10
2019-01-06T10:17:26.197Z,13.40
2019-01-06T10:20:13.173Z,13.77
2019-01-06T10:23:00.168Z,13.33
2019-01-06T10:25:47.110Z,13.40
2019-01-06T10:28:34.093Z,13.57
2019-01-06T10:31:21.140Z,15.67
2019-01-06T10:34:08.327Z,15.30
2019-01-06T10:36:38.440Z,14.53
2019-01-06T10:39:26.049Z,12.80
2019-01-06T10:42:13.144Z,13.20
2019-01-06T10:45:00.154Z,11.70
2019-01-06T10:47:47.157Z,14.33
2019-01-06T10:50:34.116Z,13.50
2019-01-06T10:53:21.227Z,15.20
2019-01-06T10:56:08.260Z,15.50
2019-01-06T10:58:55.314Z,15.40
2019-01-06T11:01:42.321Z,13.17
2019-01-06T11:04:29.210Z,12.83
2019-01-06T11:07:16.149Z,14.10
2019-01-06T11:10:03.163Z,12.93
2019-01-06T11:12:50.179Z,13.47
2019-01-06T11:15:38.084Z,17.33
2019-01-06T11:18:25.140Z,13.97
2019-01-06T11:21:12.093Z,16.77
2019-01-06T11:23:59.083Z,15.63
2019-01-06T11:26:46.140Z,14.00
2019-01-06T11:29:33.131Z,13.93
2019-01-06T11:32:20.061Z,13.60
2019-01-06T11:35:07.005Z,11.90
2019-01-06T11:37:53.929Z,13.20
2019-01-06T11:40:40.830Z,23.30
2019-01-06T11:43:27.861Z,18.50
2019-01-06T11:46:15.248Z,10.93
2019-01-06T11:49:02.287Z,11.10
2019-01-06T11:51:49.317Z,13.30
2019-01-06T11:54:36.306Z,11.73
2019-01-06T11:57:23.492Z,13.50
2019-01-06T12:00:10.465Z,13.53
2019-01-06T12:02:57.391Z,24.17
2019-01-06T12:05:44.364Z,15.20
2019-01-06T12:08:31.306Z,14.60
2019-01-06T12:11:18.344Z,12.83
2019-01-06T12:14:05.218Z,12.43
2019-01-06T12:16:52.234Z,13.73
2019-01-06T12:19:39.145Z,10.80
2019-01-06T12:22:26.146Z,10.90
2019-01-06T12:25:05.646Z,12.47
2019-01-06T12:27:52.618Z,14.63
2019-01-06T12:30:39.685Z,13.50
2019-01-06T12:33:26.925Z,13.27
2019-01-06T12:36:13.982Z,15.90
2019-01-06T12:39:00.893Z,14.00
2019-01-06T12:41:47.905Z,12.97
2019-01-06T12:44:34.928Z,13.63
2019-01-06T12:47:21.834Z,16.87
2019-01-06T12:50:08.748Z,15.03
2019-01-06T12:52:55.788Z,15.40
2019-01-06T12:55:42.772Z,13.80
2019-01-06T12:58:30.213Z,13.93
2019-01-06T13:01:17.085Z,11.97
2019-01-06T13:04:04.089Z,12.60
2019-01-06T13:06:51.004Z,12.60
2019-01-06T13:09:37.956Z,13.10
2019-01-06T13:12:24.985Z,13.70
2019-01-06T13:15:12.036Z,14.83
2019-01-06T13:17:58.972Z,11.30
2019-01-06T13:20:46.261Z,13.00
2019-01-06T13:23:33.200Z,11.50
2019-01-06T13:26:20.202Z,13.33
2019-01-06T13:29:07.135Z,11.73
2019-01-06T13:31:54.118Z,11.33
2019-01-06T13:34:41.079Z,13.57
2019-01-06T13:37:28.041Z,13.23
2019-01-06T13:40:14.980Z,11.07
2019-01-06T13:43:02.285Z,10.33
2019-01-06T13:45:49.235Z,10.13
2019-01-06T13:48:36.162Z,7.03
2019-01-06T13:51:23.222Z,6.40
2019-01-06T13:54:10.165Z,5.80
2019-01-06T13:56:57.152Z,7.73
2019-01-06T13:59:44.065Z,9.20
2019-01-06T14:02:31.014Z,5.90
2019-01-06T14:05:17.995Z,7.60
2019-01-06T14:08:04.986Z,5.53
2019-01-06T14:10:51.994Z,6.40
2019-01-06T14:13:38.905Z,6.20
2019-01-06T14:16:25.948Z,6.70
2019-01-06T14:19:12.944Z,8.40
2019-01-06T14:21:59.845Z,8.03
2019-01-06T14:24:47.913Z,6.63
2019-01-06T14:27:35.492Z,6.43
2019-01-06T14:30:22.592Z,6.60
2019-01-06T14:33:09.596Z,6.97
2019-01-06T14:35:57.004Z,6.13
2019-01-06T14:38:44.018Z,7.20
2019-01-06T14:41:30.997Z,9.90
2019-01-06T14:44:17.952Z,11.03
2019-01-06T14:47:04.912Z,12.50
2019-01-06T14:49:51.960Z,9.87
2019-01-06T14:52:38.948Z,10.37
2019-01-06T14:55:26.109Z,8.20
2019-01-06T14:58:06.605Z,7.30
2019-01-06T15:00:53.569Z,6.93
2019-01-06T15:03:40.464Z,8.17
2019-01-06T15:06:27.663Z,8.80
2019-01-06T15:09:14.663Z,8.07
2019-01-06T15:12:01.891Z,7.10
2019-01-06T15:14:48.890Z,7.07
2019-01-06T15:17:35.766Z,6.33
2019-01-06T15:20:22.829Z,6.53
2019-01-06T15:23:09.773Z,7.80
2019-01-06T15:25:56.817Z,7.90
2019-01-06T15:28:43.933Z,8.30
2019-01-06T15:31:30.931Z,7.83
2019-01-06T15:34:17.914Z,6.53
2019-01-06T15:37:00.823Z,6.80
2019-01-06T15:39:47.750Z,6.60
2019-01-06T15:42:34.732Z,7.10
2019-01-06T15:45:21.703Z,6.63
2019-01-06T15:48:08.669Z,8.83
2019-01-06T15:50:55.667Z,8.67
2019-01-06T15:53:42.721Z,8.87
2019-01-06T15:56:29.637Z,7.00
2019-01-06T15:59:16.604Z,7.60
2019-01-06T16:02:03.640Z,6.33
2019-01-06T16:04:50.608Z,7.03
2019-01-06T16:07:37.648Z,6.20
2019-01-06T16:10:24.591Z,7.20
2019-01-06T16:13:11.650Z,8.60
2019-01-06T16:15:58.597Z,8.77
2019-01-06T16:18:45.489Z,10.57
2019-01-06T16:21:32.437Z,9.37
2019-01-06T16:24:19.418Z,11.13
2019-01-06T16:27:06.461Z,9.47
2019-01-06T16:29:53.470Z,8.40
2019-01-06T16:32:40.470Z,5.93
2019-01-06T16:35:27.338Z,9.23
2019-01-06T16:38:14.274Z,10.10
2019-01-06T16:41:01.628Z,6.70
2019-01-06T16:43:48.765Z,6.27
2019-01-06T16:46:35.808Z,7.47
2019-01-06T16:49:22.733Z,7.43
2019-01-06T16:52:09.740Z,6.90
2019-01-06T16:54:48.724Z,6.87
2019-01-06T16:57:35.655Z,9.27
2019-01-06T17:00:22.695Z,10.40
2019-01-06T17:03:09.956Z,8.80
2019-01-06T17:05:56.988Z,8.73
2019-01-06T17:08:43.883Z,8.50
2019-01-06T17:11:30.901Z,6.73
2019-01-06T17:14:17.869Z,6.17
2019-01-06T17:17:04.900Z,6.90
2019-01-06T17:19:51.813Z,7.57
2019-01-06T17:22:38.811Z,8.67
2019-01-06T17:25:25.856Z,8.83
2019-01-06T17:30:56.977Z,9.27
2019-01-06T17:33:44.236Z,6.30
2019-01-06T17:36:31.197Z,6.63
2019-01-06T17:39:18.188Z,7.43
2019-01-06T17:42:05.064Z,6.90
2019-01-06T17:44:52.039Z,8.97
2019-01-06T17:47:39.317Z,8.00
2019-01-06T17:50:26.271Z,9.20
2019-01-06T17:53:13.177Z,7.27
2019-01-06T17:56:00.096Z,7.70
2019-01-06T17:58:47.003Z,7.10
2019-01-06T18:01:35.468Z,7.87
2019-01-06T18:04:22.778Z,8.60
2019-01-06T18:07:09.823Z,9.30
2019-01-06T18:09:56.859Z,8.87
2019-01-06T18:12:43.779Z,8.60
2019-01-06T18:15:30.782Z,7.27
2019-01-06T18:18:17.740Z,8.40
2019-01-06T18:20:57.768Z,8.97
2019-01-06T18:23:44.668Z,8.87
2019-01-06T18:26:31.689Z,7.70
2019-01-06T18:29:18.614Z,8.53
2019-01-06T18:32:05.526Z,9.70
2019-01-06T18:34:52.520Z,9.70
2019-01-06T18:37:39.468Z,7.80
2019-01-06T18:40:26.849Z,7.60
2019-01-06T18:43:13.796Z,8.50
2019-01-06T18:46:00.864Z,7.20
2019-01-06T18:48:47.836Z,7.10
2019-01-06T18:51:34.900Z,9.63
2019-01-06T18:54:21.887Z,10.73
2019-01-06T18:57:09.368Z,10.17
2019-01-06T18:59:56.659Z,8.60
2019-01-06T19:02:52.789Z,7.43
2019-01-06T19:11:42.719Z,9.10
2019-01-06T19:14:30.048Z,8.03
2019-01-06T19:17:17.580Z,11.30
2019-01-06T19:20:04.594Z,10.47
2019-01-06T19:22:51.856Z,7.87
2019-01-06T19:25:38.790Z,8.13
2019-01-06T19:28:25.701Z,7.40
2019-01-06T19:31:12.747Z,8.87
2019-01-06T19:33:59.716Z,7.93
2019-01-06T19:36:46.796Z,9.07
2019-01-06T19:39:33.785Z,11.00
2019-01-06T19:42:20.838Z,9.80
2019-01-06T19:45:08.014Z,8.00
2019-01-06T19:47:55.073Z,8.43
2019-01-06T19:50:42.136Z,8.33
2019-01-06T19:56:30.173Z,7.73
2019-01-06T19:59:12.532Z,7.80
2019-01-06T20:01:59.515Z,8.90
2019-01-06T20:04:46.581Z,10.93
2019-01-06T20:07:33.499Z,10.20
2019-01-06T20:10:20.535Z,8.50
2019-01-06T20:13:07.554Z,8.47
2019-01-06T20:15:54.580Z,7.77
2019-01-06T20:18:41.630Z,7.60
2019-01-06T20:21:28.628Z,6.70
2019-01-06T20:24:15.625Z,9.80
2019-01-06T20:27:02.569Z,10.50
2019-01-06T20:29:49.570Z,8.90
2019-01-06T20:32:36.474Z,7.83
2019-01-06T20:35:23.492Z,7.77
2019-01-06T20:38:10.649Z,7.63
2019-01-06T20:40:57.734Z,6.40
2019-01-06T20:43:44.666Z,7.83
2019-01-06T20:46:31.680Z,9.40
2019-01-06T20:49:18.682Z,9.10
2019-01-06T20:52:06.773Z,9.03
2019-01-06T20:54:54.204Z,6.87
2019-01-06T20:57:41.137Z,8.77
2019-01-06T21:00:28.108Z,6.97
2019-01-06T21:03:15.083Z,7.23
2019-01-06T21:06:02.052Z,6.70
2019-01-06T21:08:49.052Z,9.20
2019-01-06T21:11:36.132Z,9.50
2019-01-06T21:14:21.458Z,8.40
2019-01-06T21:17:08.482Z,7.00
2019-01-06T21:19:55.460Z,7.80
2019-01-06T21:22:42.453Z,7.10
2019-01-06T21:25:29.601Z,7.57
2019-01-06T21:28:16.571Z,6.53
2019-01-06T21:31:03.636Z,9.07
2019-01-06T21:33:50.643Z,8.63
2019-01-06T21:36:37.616Z,9.10
2019-01-06T21:39:25.449Z,11.37
2019-01-06T21:42:12.471Z,8.10
2019-01-06T21:44:59.494Z,7.90
2019-01-06T21:47:46.536Z,8.37
2019-01-06T21:50:33.504Z,8.77
2019-01-06T21:53:20.478Z,8.93
2019-01-06T21:56:07.429Z,11.23
2019-01-06T21:58:54.390Z,11.07
2019-01-06T22:01:41.329Z,10.47
2019-01-06T22:04:28.365Z,10.87
2019-01-06T22:07:15.298Z,9.27
2019-01-06T22:10:02.262Z,10.07
2019-01-06T22:12:49.244Z,10.27
2019-01-06T22:15:36.125Z,11.53
2019-01-06T22:18:23.122Z,12.00
2019-01-06T22:21:10.051Z,13.40
2019-01-06T22:23:57.045Z,10.37
2019-01-06T22:26:44.001Z,16.30
2019-01-06T22:29:31.225Z,43.00
2019-01-06T22:32:18.293Z,22.50
2019-01-06T22:35:05.290Z,11.47
2019-01-06T22:37:52.249Z,12.57
2019-01-06T22:40:39.233Z,13.60
2019-01-06T22:43:26.186Z,12.77
2019-01-06T22:46:13.153Z,12.33
2019-01-06T22:49:00.126Z,11.73
2019-01-06T22:51:47.191Z,11.87
2019-01-06T22:54:34.152Z,17.00
2019-01-06T22:57:21.217Z,28.00
2019-01-06T23:00:08.204Z,13.67
2019-01-06T23:02:55.230Z,16.20
2019-01-06T23:05:42.153Z,16.00
2019-01-06T23:08:29.162Z,17.90
2019-01-06T23:11:16.149Z,15.00
2019-01-06T23:14:03.113Z,15.13
2019-01-06T23:16:49.999Z,19.30
2019-01-06T23:19:37.009Z,22.33
2019-01-06T23:22:24.351Z,17.90
2019-01-06T23:25:11.335Z,17.47
2019-01-06T23:27:58.384Z,21.60
2019-01-06T23:30:45.349Z,17.43
2019-01-06T23:33:32.319Z,15.50
2019-01-06T23:36:19.275Z,14.97
2019-01-06T23:39:06.248Z,14.70
2019-01-06T23:41:53.219Z,13.37
2019-01-06T23:44:40.252Z,13.33
2019-01-06T23:47:27.156Z,16.27
2019-01-06T23:50:14.089Z,16.80
2019-01-06T23:53:01.084Z,15.67
2019-01-06T23:55:48.007Z,13.50
2019-01-06T23:58:34.939Z,15.30
